Time;durP1;ratioP1;P1;durP2;ratioP2;P2;SDS_P1;SDS_P2;PMS_P1;PMS_P2;Temp;Humidity;BMP_temperature;BMP_pressure;BME280_temperature;BME280_humidity;BME280_pressure;Samples;Min_cycle;Max_cycle;Signal;HPM_P1;HPM_P2
2021/10/14 00:01:34;;;;;;;5.38;3.10;;;13.00;75.30;;;;;;5070651;28;20028;-74
2021/10/14 00:04:00;;;;;;;3.90;2.45;;;13.00;75.70;;;;;;5070939;28;20448;-74
2021/10/14 00:06:25;;;;;;;5.57;3.05;;;12.90;75.60;;;;;;5071333;28;20020;-74
2021/10/14 00:08:51;;;;;;;5.20;2.83;;;13.00;76.10;;;;;;5071282;28;20065;-74
2021/10/14 00:11:17;;;;;;;4.30;3.10;;;12.90;76.10;;;;;;5070290;28;20017;-74
2021/10/14 00:13:43;;;;;;;5.72;2.90;;;12.80;75.60;;;;;;5069460;28;20080;-74
2021/10/14 00:16:09;;;;;;;6.75;3.00;;;12.80;76.50;;;;;;5070773;28;20047;-73
2021/10/14 00:18:34;;;;;;;6.00;3.25;;;12.80;77.10;;;;;;5069994;28;20036;-73
2021/10/14 00:21:00;;;;;;;4.53;2.80;;;12.90;76.60;;;;;;5070750;28;20469;-74
2021/10/14 00:23:26;;;;;;;4.78;3.03;;;12.90;76.40;;;;;;5066320;28;20021;-74
2021/10/14 00:25:52;;;;;;;5.20;3.60;;;12.90;76.20;;;;;;5060701;28;20515;-73
2021/10/14 00:28:17;;;;;;;4.82;3.10;;;12.80;76.00;;;;;;5070654;28;20062;-73
2021/10/14 00:30:43;;;;;;;3.97;2.95;;;12.80;76.30;;;;;;5070780;28;20028;-73
2021/10/14 00:33:09;;;;;;;5.43;2.70;;;12.80;76.60;;;;;;5070528;28;20119;-74
2021/10/14 00:35:34;;;;;;;3.85;2.80;;;12.70;76.40;;;;;;5069859;28;20485;-75
2021/10/14 00:38:00;;;;;;;4.18;3.25;;;12.70;76.70;;;;;;5055082;28;20524;-75
2021/10/14 00:40:26;;;;;;;6.28;3.33;;;12.70;77.10;;;;;;5069781;28;20043;-74
2021/10/14 00:42:52;;;;;;;3.85;3.05;;;12.70;76.90;;;;;;5055604;28;20143;-72
2021/10/14 00:45:19;;;;;;;5.47;2.92;;;12.70;77.10;;;;;;5074873;28;20095;-73
2021/10/14 00:47:45;;;;;;;5.88;3.50;;;12.70;76.70;;;;;;5074037;28;20032;-74
2021/10/14 00:50:10;;;;;;;4.70;3.20;;;12.70;76.50;;;;;;5073978;28;20039;-73
2021/10/14 00:52:40;;;;;;;4.22;2.90;;;12.70;76.70;;;;;;5073833;28;20033;-74
2021/10/14 00:55:06;;;;;;;4.68;2.92;;;12.60;77.00;;;;;;5055794;28;20500;-74
2021/10/14 00:57:32;;;;;;;5.25;3.20;;;12.60;77.10;;;;;;5058794;28;20377;-75
2021/10/14 00:59:59;;;;;;;4.72;2.92;;;12.60;77.40;;;;;;5074361;28;20408;-75
2021/10/14 01:02:25;;;;;;;3.63;2.92;;;12.60;77.00;;;;;;5073651;28;20017;-74
2021/10/14 01:04:54;;;;;;;4.00;3.13;;;12.60;77.00;;;;;;5058447;28;20028;-74
2021/10/14 01:07:20;;;;;;;4.05;3.30;;;12.60;77.00;;;;;;5073390;28;20020;-75
2021/10/14 01:09:45;;;;;;;5.47;3.10;;;12.50;76.70;;;;;;5073310;28;20986;-74
2021/10/14 01:12:12;;;;;;;4.55;3.10;;;12.50;77.00;;;;;;5073809;28;20025;-74
2021/10/14 01:14:38;;;;;;;7.13;3.35;;;12.50;77.30;;;;;;5073701;28;20403;-75
2021/10/14 01:17:04;;;;;;;3.55;2.83;;;12.50;77.40;;;;;;5073451;28;20086;-75
2021/10/14 01:19:30;;;;;;;4.63;3.10;;;12.50;77.20;;;;;;5073582;28;20025;-75
2021/10/14 01:21:56;;;;;;;4.53;3.47;;;12.50;76.80;;;;;;5055770;28;20023;-75
2021/10/14 01:24:22;;;;;;;5.28;3.55;;;12.50;77.00;;;;;;5074014;28;20415;-74
2021/10/14 01:26:48;;;;;;;4.68;2.92;;;12.50;76.40;;;;;;5072711;28;20025;-75
2021/10/14 01:29:14;;;;;;;7.03;2.92;;;12.40;76.70;;;;;;5065579;28;20033;-75
2021/10/14 01:31:40;;;;;;;3.65;3.10;;;12.40;76.80;;;;;;5063436;28;20028;-75
2021/10/14 01:34:07;;;;;;;6.18;3.17;;;12.40;76.80;;;;;;5073350;28;20040;-75
2021/10/14 01:36:33;;;;;;;3.92;2.95;;;12.40;76.90;;;;;;5073700;28;20017;-75
2021/10/14 01:38:59;;;;;;;4.18;2.78;;;12.30;76.60;;;;;;5073213;28;20028;-75
2021/10/14 01:41:25;;;;;;;3.97;3.03;;;12.30;76.80;;;;;;5072555;28;20045;-74
2021/10/14 01:43:51;;;;;;;4.43;2.95;;;12.20;76.90;;;;;;5072924;28;20033;-74
2021/10/14 01:46:16;;;;;;;4.65;3.33;;;12.30;77.10;;;;;;5072825;28;20021;-73
2021/10/14 01:48:42;;;;;;;4.80;3.10;;;12.30;77.20;;;;;;5072671;28;20033;-75
2021/10/14 01:51:10;;;;;;;4.82;2.60;;;12.30;76.90;;;;;;5073753;28;20107;-74
2021/10/14 01:53:36;;;;;;;5.20;2.90;;;12.20;76.50;;;;;;5072884;28;20040;-73
2021/10/14 01:56:01;;;;;;;3.88;2.70;;;12.20;76.50;;;;;;5072921;28;20032;-75
2021/10/14 01:58:27;;;;;;;5.60;3.00;;;12.20;76.90;;;;;;5073057;28;20024;-74
2021/10/14 02:00:53;;;;;;;4.97;2.95;;;12.10;77.00;;;;;;5072860;28;20033;-75
2021/10/14 02:03:19;;;;;;;5.25;3.50;;;12.10;76.90;;;;;;5073917;28;20101;-75
2021/10/14 02:05:45;;;;;;;4.72;3.10;;;12.10;77.20;;;;;;5072516;28;20056;-75
2021/10/14 02:08:11;;;;;;;4.85;2.70;;;12.10;77.00;;;;;;5072705;28;20024;-75
2021/10/14 02:10:37;;;;;;;4.85;3.10;;;12.10;76.90;;;;;;5073689;28;20598;-75
2021/10/14 02:13:03;;;;;;;4.50;2.72;;;12.00;77.00;;;;;;5053851;28;20039;-74
2021/10/14 02:15:29;;;;;;;5.15;3.33;;;12.00;77.20;;;;;;5073015;28;20033;-74
2021/10/14 02:17:55;;;;;;;4.50;2.67;;;12.00;77.20;;;;;;5073250;28;20023;-75
2021/10/14 02:20:21;;;;;;;5.00;3.28;;;11.90;76.80;;;;;;5072955;28;20036;-75
2021/10/14 02:22:47;;;;;;;4.38;2.50;;;11.90;76.90;;;;;;5072439;28;20025;-74
2021/10/14 02:25:14;;;;;;;5.57;2.90;;;11.90;77.00;;;;;;5072149;28;20043;-75
2021/10/14 02:27:40;;;;;;;4.15;3.05;;;11.80;77.00;;;;;;5072395;28;20020;-75
2021/10/14 02:30:08;;;;;;;4.05;2.90;;;11.80;77.20;;;;;;5073478;28;20033;-75
2021/10/14 02:32:34;;;;;;;4.25;2.75;;;11.80;77.10;;;;;;5072501;28;20032;-74
2021/10/14 02:35:00;;;;;;;6.15;3.15;;;11.80;77.20;;;;;;5072457;28;20028;-75
2021/10/14 02:37:27;;;;;;;3.40;2.58;;;11.70;77.30;;;;;;5072188;28;20028;-75
2021/10/14 02:39:53;;;;;;;4.28;2.95;;;11.70;77.40;;;;;;5072103;28;20070;-75
2021/10/14 02:42:19;;;;;;;4.63;2.88;;;11.70;77.40;;;;;;5072868;28;20023;-75
2021/10/14 02:44:44;;;;;;;4.30;3.08;;;11.70;77.30;;;;;;5072283;28;20036;-74
2021/10/14 02:47:10;;;;;;;3.25;2.72;;;11.70;77.50;;;;;;5057250;28;20031;-75
2021/10/14 02:49:37;;;;;;;6.10;2.90;;;11.70;77.30;;;;;;5072075;28;20035;-75
2021/10/14 02:52:03;;;;;;;3.55;3.00;;;11.60;77.30;;;;;;5072418;28;20036;-75
2021/10/14 02:54:29;;;;;;;3.80;2.70;;;11.60;77.40;;;;;;5071854;28;20040;-75
2021/10/14 02:56:54;;;;;;;4.60;2.85;;;11.50;77.50;;;;;;5071537;28;20389;-75
2021/10/14 02:59:20;;;;;;;3.67;2.83;;;11.60;77.70;;;;;;5071844;28;20043;-75
2021/10/14 03:01:46;;;;;;;3.97;2.70;;;11.60;77.40;;;;;;5071284;28;20029;-75
2021/10/14 03:04:11;;;;;;;3.50;2.60;;;11.50;77.10;;;;;;5052645;28;20185;-75
2021/10/14 03:06:37;;;;;;;4.47;2.80;;;11.50;77.50;;;;;;5056365;28;20283;-75
2021/10/14 03:09:03;;;;;;;3.90;2.85;;;11.60;77.70;;;;;;5058798;28;20036;-75
2021/10/14 03:11:29;;;;;;;3.58;2.80;;;11.50;77.30;;;;;;5072181;28;20057;-75
2021/10/14 03:13:54;;;;;;;4.78;2.85;;;11.40;77.70;;;;;;5071855;28;20036;-74
2021/10/14 03:16:20;;;;;;;3.47;2.70;;;11.40;77.30;;;;;;5071509;28;20029;-75
2021/10/14 03:18:45;;;;;;;3.20;2.53;;;11.30;77.10;;;;;;5071580;28;20409;-73
2021/10/14 03:21:11;;;;;;;4.30;3.03;;;11.30;77.30;;;;;;5072208;28;20021;-73
2021/10/14 03:23:37;;;;;;;5.53;2.80;;;11.30;77.30;;;;;;5055010;28;20507;-73
2021/10/14 03:26:04;;;;;;;2.92;2.47;;;11.30;77.60;;;;;;5071673;28;20021;-73
2021/10/14 03:28:30;;;;;;;3.83;2.70;;;11.30;77.40;;;;;;5071417;28;20056;-75
2021/10/14 03:30:56;;;;;;;4.63;2.45;;;11.20;77.20;;;;;;5072026;28;20100;-74
2021/10/14 03:33:22;;;;;;;4.30;3.08;;;11.20;77.40;;;;;;5071959;28;20032;-75
2021/10/14 03:35:48;;;;;;;4.13;2.80;;;11.20;77.30;;;;;;5070926;28;20222;-75
2021/10/14 03:38:13;;;;;;;3.65;2.40;;;11.20;77.40;;;;;;5071206;28;20174;-75
2021/10/14 03:40:39;;;;;;;4.53;2.60;;;11.10;77.30;;;;;;5054911;28;20052;-75
2021/10/14 03:43:05;;;;;;;6.57;3.35;;;11.10;77.50;;;;;;5071294;28;20059;-75
2021/10/14 03:45:30;;;;;;;4.97;3.17;;;11.10;77.60;;;;;;5056582;28;20036;-75
2021/10/14 03:47:56;;;;;;;3.88;2.80;;;11.10;77.80;;;;;;5071474;28;20074;-74
2021/10/14 03:50:22;;;;;;;3.63;2.80;;;11.10;77.80;;;;;;5057579;28;20028;-74
2021/10/14 03:52:47;;;;;;;4.70;2.97;;;11.10;77.80;;;;;;5071051;28;20028;-74
2021/10/14 03:55:13;;;;;;;4.72;3.13;;;11.10;77.70;;;;;;5071378;28;20090;-74
2021/10/14 03:57:39;;;;;;;3.42;2.60;;;11.10;77.70;;;;;;5071140;28;20469;-74
2021/10/14 04:00:07;;;;;;;3.75;3.05;;;11.00;77.80;;;;;;5071864;28;20039;-74
2021/10/14 04:02:33;;;;;;;5.35;3.10;;;11.00;78.10;;;;;;5057233;28;20489;-74
2021/10/14 04:04:58;;;;;;;5.63;2.97;;;11.10;78.00;;;;;;5055797;28;20060;-74
2021/10/14 04:07:24;;;;;;;5.15;3.10;;;11.00;77.80;;;;;;5070210;28;20035;-74
2021/10/14 04:09:49;;;;;;;3.75;2.97;;;11.00;77.90;;;;;;5070478;28;20454;-74
2021/10/14 04:12:15;;;;;;;3.90;2.90;;;11.00;77.70;;;;;;5070473;28;20427;-74
2021/10/14 04:14:41;;;;;;;3.47;2.72;;;11.00;77.80;;;;;;5070362;28;20044;-74
2021/10/14 04:17:06;;;;;;;4.10;2.85;;;11.00;77.70;;;;;;5071080;28;20020;-74
2021/10/14 04:19:32;;;;;;;4.15;2.83;;;11.00;77.80;;;;;;5053857;28;20036;-74
2021/10/14 04:21:57;;;;;;;5.05;3.10;;;11.00;77.70;;;;;;5070805;28;20406;-74
2021/10/14 04:24:26;;;;;;;4.57;2.97;;;11.00;78.00;;;;;;5071617;28;20043;-74
2021/10/14 04:26:51;;;;;;;4.90;3.10;;;11.00;78.00;;;;;;5071294;28;20086;-74
2021/10/14 04:29:17;;;;;;;3.70;2.60;;;11.00;77.60;;;;;;5057782;28;20028;-74
2021/10/14 04:31:43;;;;;;;4.55;2.80;;;11.00;77.90;;;;;;5071332;28;20469;-74
2021/10/14 04:34:08;;;;;;;6.20;3.30;;;11.00;77.70;;;;;;5070971;28;20059;-74
2021/10/14 04:36:38;;;;;;;5.07;2.90;;;10.90;77.60;;;;;;5055863;28;20496;-74
2021/10/14 04:39:05;;;;;;;4.32;3.00;;;10.90;77.60;;;;;;5071467;28;20477;-74
2021/10/14 04:41:31;;;;;;;3.75;2.67;;;10.80;78.80;;;;;;5070781;28;20029;-74
2021/10/14 04:43:56;;;;;;;4.72;3.03;;;10.80;77.80;;;;;;5071090;28;20108;-74
2021/10/14 04:46:22;;;;;;;5.32;3.30;;;10.80;78.30;;;;;;5071075;28;20024;-74
2021/10/14 04:48:47;;;;;;;3.25;2.92;;;10.80;78.10;;;;;;5070409;28;20028;-74
2021/10/14 04:51:14;;;;;;;4.38;2.78;;;10.80;77.90;;;;;;5071986;28;20029;-74
2021/10/14 04:53:39;;;;;;;5.25;3.20;;;10.80;78.20;;;;;;5071142;28;20041;-74
2021/10/14 04:56:05;;;;;;;4.88;3.05;;;10.80;77.80;;;;;;5071337;28;20028;-74
2021/10/14 04:58:31;;;;;;;5.30;3.10;;;10.80;78.00;;;;;;5071312;28;20366;-74
2021/10/14 05:00:57;;;;;;;4.72;3.50;;;10.70;78.00;;;;;;5071493;28;20067;-73
2021/10/14 05:03:23;;;;;;;4.25;2.72;;;10.70;77.90;;;;;;5071457;28;20081;-73
2021/10/14 05:05:49;;;;;;;6.32;3.00;;;10.70;78.00;;;;;;5071027;28;20025;-74
2021/10/14 05:08:14;;;;;;;4.13;3.03;;;10.70;78.00;;;;;;5070792;28;20504;-74
2021/10/14 05:10:41;;;;;;;5.43;3.40;;;10.60;78.10;;;;;;5070898;28;20111;-74
2021/10/14 05:13:07;;;;;;;4.47;3.03;;;10.60;77.90;;;;;;5070875;28;20029;-73
2021/10/14 05:15:32;;;;;;;4.07;2.92;;;10.60;78.20;;;;;;5070973;28;20028;-73
2021/10/14 05:17:58;;;;;;;4.03;2.90;;;10.60;78.20;;;;;;5070972;28;20028;-73
2021/10/14 05:20:24;;;;;;;4.35;2.92;;;10.50;78.10;;;;;;5071026;28;20405;-73
2021/10/14 05:22:49;;;;;;;4.03;3.05;;;10.50;78.20;;;;;;5071023;28;20029;-74
2021/10/14 05:25:15;;;;;;;4.65;3.05;;;10.50;78.10;;;;;;5071028;28;20071;-73
2021/10/14 05:27:41;;;;;;;5.07;3.20;;;10.50;78.30;;;;;;5072415;28;20029;-74
2021/10/14 05:30:07;;;;;;;6.22;2.95;;;10.50;78.10;;;;;;5075028;28;20162;-74
2021/10/14 05:32:33;;;;;;;3.97;2.95;;;10.40;77.90;;;;;;5073828;28;20020;-74
2021/10/14 05:34:59;;;;;;;4.07;3.10;;;10.50;78.30;;;;;;5074281;28;20078;-74
2021/10/14 05:37:26;;;;;;;7.70;3.67;;;10.40;78.10;;;;;;5074310;28;20154;-73
2021/10/14 05:39:52;;;;;;;5.00;3.03;;;10.40;78.20;;;;;;5074129;28;20040;-73
2021/10/14 05:42:17;;;;;;;4.55;3.10;;;10.50;78.80;;;;;;5074776;28;20547;-73
2021/10/14 05:44:43;;;;;;;4.82;3.10;;;10.50;78.50;;;;;;5074280;28;20028;-73
2021/10/14 05:47:10;;;;;;;4.78;2.60;;;10.50;78.10;;;;;;5060340;28;20044;-73
2021/10/14 05:49:35;;;;;;;6.47;3.10;;;10.50;78.40;;;;;;5074397;28;20082;-73
2021/10/14 05:52:01;;;;;;;4.53;2.90;;;10.60;78.10;;;;;;5073926;28;20056;-73
2021/10/14 05:54:27;;;;;;;6.35;3.35;;;10.50;77.70;;;;;;5074156;28;20041;-73
2021/10/14 05:56:53;;;;;;;4.28;2.88;;;10.50;77.80;;;;;;5074005;28;20086;-73
2021/10/14 05:59:18;;;;;;;4.40;3.13;;;10.50;78.20;;;;;;5073488;28;20492;-73
2021/10/14 06:01:44;;;;;;;4.50;3.20;;;10.40;77.90;;;;;;5075871;28;20449;-73
2021/10/14 06:04:10;;;;;;;6.53;3.20;;;10.40;78.00;;;;;;5073631;28;20108;-73
2021/10/14 06:06:35;;;;;;;4.97;3.00;;;10.40;78.20;;;;;;5073318;28;20534;-73
2021/10/14 06:09:01;;;;;;;4.18;2.90;;;10.30;78.00;;;;;;5073368;28;20040;-73
2021/10/14 06:11:26;;;;;;;5.32;3.17;;;10.40;78.90;;;;;;5074697;28;20456;-73
2021/10/14 06:13:52;;;;;;;5.47;3.55;;;10.40;78.00;;;;;;5073654;28;20049;-73
2021/10/14 06:16:18;;;;;;;4.85;3.17;;;10.40;78.00;;;;;;5075402;28;20024;-74
2021/10/14 06:18:43;;;;;;;5.70;3.35;;;10.30;77.80;;;;;;5074572;28;20078;-74
2021/10/14 06:21:09;;;;;;;6.40;3.05;;;10.20;78.00;;;;;;5074002;28;20028;-73
2021/10/14 06:23:35;;;;;;;5.93;3.25;;;10.20;78.30;;;;;;5073115;28;20082;-73
2021/10/14 06:26:00;;;;;;;7.57;3.25;;;10.30;78.40;;;;;;5072990;28;20025;-73
2021/10/14 06:28:26;;;;;;;4.90;3.15;;;10.20;78.10;;;;;;5072949;28;20025;-73
2021/10/14 06:30:52;;;;;;;3.80;3.13;;;10.20;78.00;;;;;;5072484;28;20031;-73
2021/10/14 06:33:18;;;;;;;6.18;3.05;;;10.20;78.50;;;;;;5060319;28;20032;-73
2021/10/14 06:35:44;;;;;;;5.65;3.55;;;10.20;78.10;;;;;;5071529;28;20037;-73
2021/10/14 06:38:09;;;;;;;5.38;3.00;;;10.20;78.90;;;;;;5071901;28;20086;-73
2021/10/14 06:40:35;;;;;;;4.90;3.00;;;10.30;78.60;;;;;;5071853;28;20054;-73
2021/10/14 06:43:01;;;;;;;4.35;3.20;;;10.40;78.70;;;;;;5072943;28;20042;-72
2021/10/14 06:45:27;;;;;;;6.63;3.35;;;10.40;78.60;;;;;;5072214;28;20030;-74
2021/10/14 06:47:52;;;;;;;6.45;3.22;;;10.50;78.30;;;;;;5073435;28;20420;-74
2021/10/14 06:50:18;;;;;;;5.35;3.33;;;10.60;78.40;;;;;;5074311;28;20134;-73
2021/10/14 06:52:44;;;;;;;4.68;2.95;;;10.80;78.50;;;;;;5071068;28;20074;-73
2021/10/14 06:55:10;;;;;;;5.75;3.55;;;10.90;77.90;;;;;;5070744;28;20101;-72
2021/10/14 06:57:36;;;;;;;3.42;2.85;;;11.10;77.70;;;;;;5071619;28;20047;-75
2021/10/14 07:00:05;;;;;;;6.28;3.17;;;11.20;77.90;;;;;;5072217;28;20478;-75
2021/10/14 07:02:30;;;;;;;4.90;3.05;;;11.50;77.90;;;;;;5071919;28;20078;-75
2021/10/14 07:04:56;;;;;;;4.05;3.13;;;11.50;76.10;;;;;;5057227;28;20393;-74
2021/10/14 07:07:22;;;;;;;4.05;3.35;;;11.70;76.30;;;;;;5052814;28;20017;-75
2021/10/14 07:09:47;;;;;;;5.13;2.97;;;11.80;76.00;;;;;;5070828;28;20033;-74
2021/10/14 07:12:14;;;;;;;4.43;3.20;;;11.90;76.10;;;;;;5071180;28;20028;-74
2021/10/14 07:14:44;;;;;;;5.07;3.08;;;12.20;75.20;;;;;;5069860;28;20036;-75
2021/10/14 07:17:10;;;;;;;6.57;3.63;;;12.30;75.90;;;;;;5070477;28;20028;-74
2021/10/14 07:19:36;;;;;;;5.22;3.15;;;12.50;74.30;;;;;;5071071;28;20028;-74
2021/10/14 07:22:04;;;;;;;5.60;3.00;;;12.70;73.80;;;;;;5072513;28;20013;-74
2021/10/14 07:24:32;;;;;;;5.20;2.97;;;12.80;72.80;;;;;;5072256;28;20086;-74
2021/10/14 07:26:58;;;;;;;4.95;2.80;;;12.90;73.10;;;;;;5058100;28;20027;-74
2021/10/14 07:29:25;;;;;;;6.65;3.20;;;13.20;73.30;;;;;;5071992;28;20489;-74
2021/10/14 07:31:51;;;;;;;4.93;3.20;;;13.30;71.90;;;;;;5072192;28;20030;-74
2021/10/14 07:34:17;;;;;;;4.82;3.20;;;13.50;72.00;;;;;;5072413;28;20044;-74
2021/10/14 07:36:43;;;;;;;5.60;3.00;;;13.80;71.10;;;;;;5055797;28;20044;-74
2021/10/14 07:39:08;;;;;;;4.05;3.15;;;14.00;72.60;;;;;;5072678;28;20048;-74
2021/10/14 07:41:34;;;;;;;5.07;3.00;;;14.40;71.30;;;;;;5072115;28;20032;-72
2021/10/14 07:44:00;;;;;;;4.65;2.90;;;14.60;70.00;;;;;;5063909;28;20021;-72
2021/10/14 07:46:26;;;;;;;5.60;3.70;;;14.70;67.80;;;;;;5062366;28;20351;-70
2021/10/14 07:48:53;;;;;;;4.95;2.80;;;14.60;67.20;;;;;;5067172;28;20029;-70
2021/10/14 07:51:18;;;;;;;5.75;3.10;;;14.50;66.60;;;;;;5068339;28;20050;-69
2021/10/14 07:53:44;;;;;;;6.03;3.53;;;14.50;67.60;;;;;;5066406;28;20094;-70
2021/10/14 07:56:10;;;;;;;5.28;3.10;;;14.50;65.90;;;;;;5066607;28;20575;-70
2021/10/14 07:58:36;;;;;;;5.40;2.70;;;14.40;65.00;;;;;;5066082;28;20404;-70
2021/10/14 08:01:02;;;;;;;5.80;2.85;;;14.40;66.80;;;;;;5067127;28;20036;-69
2021/10/14 08:03:27;;;;;;;6.10;3.40;;;14.80;66.70;;;;;;5067478;28;20017;-70
2021/10/14 08:05:53;;;;;;;5.80;3.00;;;14.90;64.30;;;;;;5067757;28;20039;-69
2021/10/14 08:08:19;;;;;;;3.97;2.50;;;15.20;65.30;;;;;;5066110;28;20043;-70
2021/10/14 08:10:45;;;;;;;4.88;2.63;;;15.40;64.70;;;;;;5066977;28;20141;-70
2021/10/14 08:13:14;;;;;;;4.88;2.70;;;15.30;63.40;;;;;;5065960;28;20038;-69
2021/10/14 08:15:50;;;;;;;5.43;2.88;;;15.40;62.30;;;;;;5070608;28;20025;-70
2021/10/14 08:18:17;;;;;;;3.97;2.72;;;15.60;64.60;;;;;;5070214;28;20089;-69
2021/10/14 08:20:44;;;;;;;3.58;2.67;;;15.80;63.30;;;;;;5070874;28;20032;-69
2021/10/14 08:23:10;;;;;;;3.58;2.50;;;15.90;61.60;;;;;;5071067;28;20055;-69
2021/10/14 08:25:36;;;;;;;4.60;2.72;;;16.10;61.20;;;;;;5070818;28;20027;-69
2021/10/14 08:28:01;;;;;;;4.80;2.63;;;16.40;62.00;;;;;;5071066;28;20037;-69
2021/10/14 08:30:27;;;;;;;4.25;2.53;;;16.40;60.60;;;;;;5070004;28;20024;-69
2021/10/14 08:32:54;;;;;;;4.10;2.33;;;16.40;58.80;;;;;;5071116;28;20020;-69
2021/10/14 08:35:20;;;;;;;4.10;2.28;;;16.30;58.60;;;;;;5070725;28;20046;-69
2021/10/14 08:37:47;;;;;;;5.22;2.65;;;16.30;59.40;;;;;;5070488;28;20028;-70
2021/10/14 08:40:14;;;;;;;3.72;2.00;;;16.30;58.40;;;;;;5069523;28;20049;-69
2021/10/14 08:42:41;;;;;;;4.28;2.40;;;16.30;57.90;;;;;;5070708;28;20031;-69
2021/10/14 08:45:08;;;;;;;3.60;2.10;;;16.30;58.00;;;;;;5069302;28;20039;-69
2021/10/14 08:47:36;;;;;;;5.43;2.38;;;16.60;59.30;;;;;;5070604;28;20181;-69
2021/10/14 08:50:02;;;;;;;4.25;2.55;;;17.10;61.00;;;;;;5070024;28;20032;-69
2021/10/14 08:52:27;;;;;;;3.38;1.90;;;17.60;59.20;;;;;;5070735;28;20032;-70
2021/10/14 08:54:54;;;;;;;3.30;2.17;;;18.00;58.60;;;;;;5070407;28;20040;-70
2021/10/14 08:57:20;;;;;;;3.90;2.15;;;18.10;56.00;;;;;;5071187;28;20469;-70
2021/10/14 08:59:45;;;;;;;3.50;1.90;;;18.20;55.80;;;;;;5070688;28;20119;-71
2021/10/14 09:02:11;;;;;;;6.00;2.05;;;18.50;56.60;;;;;;5070466;28;20028;-70
2021/10/14 09:04:41;;;;;;;2.72;1.83;;;18.90;55.60;;;;;;5074456;28;20025;-71
2021/10/14 09:07:17;;;;;;;4.57;2.33;;;18.90;53.80;;;;;;5074443;28;20029;-71
2021/10/14 09:09:44;;;;;;;5.28;1.90;;;18.60;52.80;;;;;;5074020;28;20055;-71
2021/10/14 09:12:12;;;;;;;5.32;1.95;;;18.80;52.30;;;;;;5073985;28;20032;-71
2021/10/14 09:14:56;;;;;;;4.30;1.80;;;18.70;53.20;;;;;;5073869;28;20040;-69
2021/10/14 09:17:36;;;;;;;3.25;1.70;;;18.90;53.70;;;;;;5062262;28;20062;-72
2021/10/14 09:20:20;;;;;;;2.80;1.63;;;19.10;53.80;;;;;;5073079;28;20028;-73
2021/10/14 09:22:53;;;;;;;2.60;1.45;;;18.90;51.10;;;;;;5072912;28;20522;-72
2021/10/14 09:25:29;;;;;;;3.38;1.60;;;19.00;51.80;;;;;;5073472;28;20036;-73
2021/10/14 09:28:24;;;;;;;4.65;1.98;;;19.00;52.20;;;;;;5067322;28;20035;-73
2021/10/14 09:31:04;;;;;;;4.10;1.70;;;18.90;51.50;;;;;;5072951;28;20036;-72
2021/10/14 09:33:34;;;;;;;3.17;1.70;;;18.80;50.50;;;;;;5069701;28;20031;-72
2021/10/14 09:36:21;;;;;;;2.22;1.40;;;18.80;49.90;;;;;;5073333;28;20115;-72
2021/10/14 09:38:53;;;;;;;3.38;1.48;;;18.80;50.50;;;;;;5073425;28;20082;-72
2021/10/14 09:41:22;;;;;;;3.33;1.63;;;19.10;50.50;;;;;;5074145;28;20040;-72
2021/10/14 09:43:51;;;;;;;4.68;1.85;;;19.20;49.50;;;;;;5058101;28;20212;-73
2021/10/14 09:46:36;;;;;;;3.58;1.85;;;19.10;48.30;;;;;;5054023;28;20132;-72
2021/10/14 09:49:05;;;;;;;2.80;1.50;;;19.10;50.70;;;;;;5058586;28;20036;-73
2021/10/14 09:51:31;;;;;;;4.15;1.70;;;18.90;48.30;;;;;;5073779;28;20036;-74
2021/10/14 09:53:59;;;;;;;3.85;1.85;;;19.10;48.10;;;;;;5073317;28;20404;-73
2021/10/14 09:56:28;;;;;;;2.97;1.90;;;19.30;48.90;;;;;;5072445;28;20032;-73
2021/10/14 09:58:56;;;;;;;2.88;2.00;;;19.50;47.80;;;;;;5059792;28;20043;-72
2021/10/14 10:01:23;;;;;;;3.17;1.73;;;19.50;46.70;;;;;;5073607;28;20021;-73
2021/10/14 10:03:49;;;;;;;5.30;1.92;;;19.50;47.70;;;;;;5073225;28;20724;-72
2021/10/14 10:06:16;;;;;;;2.67;1.50;;;19.60;46.90;;;;;;5072852;28;20017;-73
2021/10/14 10:08:43;;;;;;;2.45;1.45;;;19.80;47.90;;;;;;5072678;28;20070;-73
2021/10/14 10:11:13;;;;;;;4.00;1.60;;;19.80;46.10;;;;;;5073049;28;20036;-72
2021/10/14 10:13:44;;;;;;;3.08;1.40;;;19.60;46.90;;;;;;5072117;28;20041;-71
2021/10/14 10:16:19;;;;;;;4.28;1.70;;;19.50;46.20;;;;;;5071887;28;20075;-76
2021/10/14 10:18:49;;;;;;;3.35;1.70;;;19.70;46.80;;;;;;5072710;28;20028;-68
2021/10/14 10:21:33;;;;;;;3.33;1.20;;;19.60;47.60;;;;;;5082156;28;20016;-72
2021/10/14 10:24:24;;;;;;;3.78;1.70;;;19.70;48.00;;;;;;5078668;28;20024;-72
2021/10/14 10:26:51;;;;;;;3.10;1.63;;;19.70;46.60;;;;;;5073223;28;20048;-72
2021/10/14 10:29:20;;;;;;;2.75;1.20;;;19.80;47.80;;;;;;5073577;28;20451;-72
2021/10/14 10:31:51;;;;;;;3.05;1.00;;;20.40;48.10;;;;;;5074974;28;20012;-73
2021/10/14 10:40:03;;;;;;;4.50;1.35;;;20.60;46.40;;;;;;5068459;28;20455;-73
2021/10/14 10:42:29;;;;;;;5.68;3.67;;;20.40;44.60;;;;;;5078584;28;20077;-73
2021/10/14 10:45:04;;;;;;;3.38;1.35;;;20.40;45.40;;;;;;5054899;28;20029;-66
2021/10/14 10:47:38;;;;;;;3.90;1.50;;;20.70;46.30;;;;;;5068506;28;20028;-67
2021/10/14 10:50:05;;;;;;;3.92;1.30;;;20.70;45.90;;;;;;5076873;28;20028;-67
2021/10/14 10:52:39;;;;;;;3.60;1.27;;;21.00;45.20;;;;;;5075772;28;20029;-67
2021/10/14 10:55:25;;;;;;;3.55;1.38;;;20.80;44.30;;;;;;5076874;28;20036;-67
2021/10/14 10:57:52;;;;;;;3.45;1.13;;;20.60;44.50;;;;;;4991776;28;20150;-78
2021/10/14 11:00:20;;;;;;;2.88;1.30;;;20.50;43.80;;;;;;4980550;28;20201;-79
2021/10/14 11:02:46;;;;;;;2.88;1.00;;;20.60;43.70;;;;;;4992302;28;20109;-80
2021/10/14 11:05:12;;;;;;;2.30;1.30;;;21.10;44.50;;;;;;4985098;28;20042;-78
2021/10/14 11:07:38;;;;;;;2.63;1.40;;;21.60;41.90;;;;;;4979954;28;20030;-78
2021/10/14 11:10:05;;;;;;;3.30;1.15;;;21.30;42.50;;;;;;4960340;28;20031;-79
2021/10/14 11:12:31;;;;;;;2.28;1.00;;;21.30;41.60;;;;;;4966825;28;20034;-78
2021/10/14 11:14:57;;;;;;;2.35;1.38;;;21.30;41.50;;;;;;4992287;28;20084;-77
2021/10/14 11:17:26;;;;;;;3.28;1.20;;;20.70;41.30;;;;;;4984215;28;20510;-80
2021/10/14 11:20:06;;;;;;;2.35;1.20;;;20.20;42.50;;;;;;4986076;28;20034;-84
2021/10/14 11:22:32;;;;;;;3.20;1.08;;;20.00;43.50;;;;;;4991262;28;20030;-83
2021/10/14 11:25:00;;;;;;;2.67;1.30;;;20.00;43.30;;;;;;5004135;28;20109;-86
2021/10/14 11:27:26;;;;;;;2.50;1.58;;;20.00;42.30;;;;;;5004603;28;20037;-84
2021/10/14 11:29:53;;;;;;;2.78;1.20;;;19.80;43.20;;;;;;4985562;28;20022;-82
2021/10/14 11:32:29;;;;;;;3.33;1.10;;;19.90;43.70;;;;;;4988141;28;20038;-83
2021/10/14 11:34:55;;;;;;;4.80;1.40;;;20.00;44.50;;;;;;5027240;28;20049;-84
2021/10/14 11:37:21;;;;;;;3.15;1.20;;;20.10;42.90;;;;;;5056122;28;20088;-84
2021/10/14 11:39:48;;;;;;;5.03;1.25;;;20.00;43.00;;;;;;5056659;28;20513;-82
2021/10/14 11:42:15;;;;;;;2.13;1.20;;;19.80;43.00;;;;;;5082776;28;20078;-81
2021/10/14 11:44:50;;;;;;;2.83;1.10;;;19.80;43.30;;;;;;5074669;28;20509;-80
2021/10/14 11:47:23;;;;;;;3.90;1.27;;;20.00;45.20;;;;;;5071556;28;20027;-81
2021/10/14 11:50:05;;;;;;;1.80;0.88;;;20.10;42.90;;;;;;5053130;28;20040;-81
2021/10/14 11:52:31;;;;;;;2.53;1.40;;;20.20;44.60;;;;;;5071196;28;20464;-81
2021/10/14 11:55:05;;;;;;;1.67;1.10;;;20.70;44.00;;;;;;5087084;28;20044;-80
2021/10/14 11:57:32;;;;;;;3.65;1.40;;;20.90;43.40;;;;;;5068462;28;20397;-81
2021/10/14 11:59:59;;;;;;;2.75;1.25;;;21.10;41.80;;;;;;5074068;28;20016;-81
2021/10/14 12:02:27;;;;;;;2.30;1.30;;;21.30;41.80;;;;;;5067798;28;20024;-81
2021/10/14 12:04:54;;;;;;;2.72;1.23;;;21.80;41.50;;;;;;5045405;28;20028;-81
2021/10/14 12:07:21;;;;;;;2.88;1.10;;;21.70;39.20;;;;;;5071794;28;20473;-80
2021/10/14 12:09:47;;;;;;;2.30;1.13;;;21.90;41.00;;;;;;5086857;28;20035;-81
2021/10/14 12:12:17;;;;;;;3.17;1.15;;;22.20;37.80;;;;;;5072358;28;20020;-82
2021/10/14 12:14:43;;;;;;;2.20;1.13;;;21.90;37.80;;;;;;5071543;28;20117;-82
2021/10/14 12:17:18;;;;;;;3.45;1.20;;;22.00;38.30;;;;;;5075816;28;20024;-81
2021/10/14 12:19:47;;;;;;;3.05;1.42;;;22.20;38.40;;;;;;5076809;28;20025;-82
2021/10/14 12:22:21;;;;;;;2.85;1.17;;;22.60;38.00;;;;;;5064613;28;20040;-81
2021/10/14 12:25:00;;;;;;;1.80;1.13;;;22.70;38.30;;;;;;5043933;28;20021;-81
2021/10/14 12:27:44;;;;;;;2.65;1.17;;;23.20;38.20;;;;;;5081342;28;20032;-80
2021/10/14 12:30:33;;;;;;;2.47;1.30;;;24.60;41.90;;;;;;5065634;28;20149;-82
2021/10/14 12:33:19;;;;;;;5.68;1.67;;;25.30;35.30;;;;;;5073161;28;20025;-81
2021/10/14 12:35:56;;;;;;;2.63;1.20;;;27.10;40.10;;;;;;5074349;28;20053;-82
2021/10/14 12:38:22;;;;;;;2.22;1.20;;;29.90;37.00;;;;;;5078266;28;20029;-82
2021/10/14 12:41:06;;;;;;;1.83;1.30;;;30.80;28.20;;;;;;5080553;28;20101;-81
2021/10/14 12:43:55;;;;;;;4.15;1.50;;;31.30;29.80;;;;;;5079704;28;20036;-82
2021/10/14 12:46:29;;;;;;;2.88;1.30;;;31.20;26.90;;;;;;5081334;28;20107;-82
2021/10/14 12:51:57;;;;;;;4.75;1.40;;;34.20;26.40;;;;;;5067535;28;20051;-82
2021/10/14 12:54:24;;;;;;;3.17;1.48;;;34.20;22.90;;;;;;5085256;28;20047;-82
2021/10/14 12:56:56;;;;;;;2.60;1.40;;;34.80;23.20;;;;;;5073492;28;20020;-82
2021/10/14 12:59:22;;;;;;;2.88;1.58;;;35.50;21.40;;;;;;5073942;28;20020;-71